Fort Dearborn, Illinois
Current Conditions -  °F | °C
As of 8:53 AM on Tuesday 21 Oct 2014 (Local Time) from KMDW Reporting Station
Scattered Clouds Scattered Clouds  
Wind Chill: 51°   Ceiling: Unl
Heat Index: 51°   Visibility: 10mi
Dew Point: 39°   Wind: 13mph
Humidity: 63%   Direction: 350°N
Pressure: 30.13"   Gusts: NA
Location:  41.8946°N, 87.6187°W
Report Text: KMDW 211353Z 35011KT 10SM SCT042 11/04 A3013 RMK AO2 SLP204 T01060039
Loading
Personal Weather Stations






























Interactive Weather Map New forecast layout! Learn more

10-Day Weather Forecast

Advertisements
Track Severe Weather on mobile